Time;durP1;ratioP1;P1;durP2;ratioP2;P2;SDS_P1;SDS_P2;PMS_P1;PMS_P2;Temp;Humidity;BMP_temperature;BMP_pressure;BME280_temperature;BME280_humidity;BME280_pressure;Samples;Min_cycle;Max_cycle;Signal;HPM_P1;HPM_P2
2024/02/07 00:00:21;;;;;;;1.55;0.80;;;19.40;54.40;;;;;;5000486;28;20033;-63
2024/02/07 00:02:47;;;;;;;1.42;0.70;;;19.50;54.40;;;;;;5011525;28;20041;-65
2024/02/07 00:05:12;;;;;;;1.45;0.65;;;19.50;54.40;;;;;;5014274;28;20029;-65
2024/02/07 00:07:38;;;;;;;2.60;0.77;;;19.50;54.40;;;;;;5010885;28;20033;-66
2024/02/07 00:10:04;;;;;;;1.73;0.70;;;19.50;54.40;;;;;;5012335;28;20041;-65
2024/02/07 00:12:30;;;;;;;1.15;0.60;;;19.50;54.30;;;;;;5009279;28;20030;-65
2024/02/07 00:14:55;;;;;;;0.60;0.60;;;19.50;54.30;;;;;;5021974;28;20029;-65
2024/02/07 00:17:21;;;;;;;2.03;0.93;;;19.50;54.30;;;;;;5017471;28;20038;-65
2024/02/07 00:19:47;;;;;;;1.60;0.77;;;19.50;54.30;;;;;;4988184;28;20034;-65
2024/02/07 00:22:13;;;;;;;1.55;0.82;;;19.50;54.40;;;;;;5014907;28;20041;-65
2024/02/07 00:24:39;;;;;;;4.30;0.95;;;19.50;54.40;;;;;;5017415;28;20033;-65
2024/02/07 00:27:05;;;;;;;1.10;0.70;;;19.50;54.40;;;;;;5011229;28;20030;-65
2024/02/07 00:29:31;;;;;;;1.50;0.75;;;19.50;54.40;;;;;;5013826;28;20041;-64
2024/02/07 00:31:56;;;;;;;1.25;1.00;;;19.40;54.40;;;;;;5012653;28;20034;-66
2024/02/07 00:34:22;;;;;;;0.98;0.70;;;19.40;54.40;;;;;;5009844;28;20025;-65
2024/02/07 00:36:48;;;;;;;1.20;0.73;;;19.40;54.50;;;;;;5019339;28;20048;-65
2024/02/07 00:39:14;;;;;;;1.75;0.90;;;19.40;54.50;;;;;;5016066;28;20029;-65
2024/02/07 00:41:39;;;;;;;1.45;0.80;;;19.40;54.60;;;;;;5018423;28;20034;-64
2024/02/07 00:44:04;;;;;;;1.75;0.93;;;19.40;54.60;;;;;;5016309;28;20101;-65
2024/02/07 00:46:30;;;;;;;3.00;1.10;;;19.40;54.60;;;;;;5017615;28;20030;-65
2024/02/07 00:48:56;;;;;;;1.45;0.90;;;19.30;54.60;;;;;;5018574;28;20045;-65
2024/02/07 00:51:21;;;;;;;1.88;0.75;;;19.30;54.60;;;;;;5018169;28;20048;-66
2024/02/07 00:53:47;;;;;;;1.02;0.85;;;19.30;54.60;;;;;;5017518;28;20327;-65
2024/02/07 00:56:12;;;;;;;1.60;1.10;;;19.30;54.70;;;;;;5003629;28;20052;-65
2024/02/07 00:58:39;;;;;;;4.00;1.05;;;19.30;54.70;;;;;;5016910;28;20022;-65
2024/02/07 01:01:04;;;;;;;2.03;1.13;;;19.30;54.80;;;;;;5021440;28;20111;-66
2024/02/07 01:03:30;;;;;;;2.28;0.90;;;19.20;54.70;;;;;;5016309;28;20049;-64
2024/02/07 01:05:55;;;;;;;1.70;1.27;;;19.20;54.80;;;;;;5022122;28;20044;-66
2024/02/07 01:08:21;;;;;;;2.03;0.85;;;19.20;54.90;;;;;;5016646;28;20030;-65
2024/02/07 01:10:47;;;;;;;1.63;1.23;;;19.20;54.80;;;;;;5025139;28;20131;-65
2024/02/07 01:13:12;;;;;;;1.50;0.70;;;19.20;54.90;;;;;;5018577;28;20484;-65
2024/02/07 01:15:38;;;;;;;3.03;1.00;;;19.10;55.50;;;;;;5025103;28;20029;-66
2024/02/07 01:18:06;;;;;;;2.03;0.80;;;19.10;55.50;;;;;;5019777;28;20187;-65
2024/02/07 01:20:32;;;;;;;1.85;1.33;;;19.10;54.90;;;;;;5023409;28;20680;-66
2024/02/07 01:22:57;;;;;;;1.88;0.90;;;19.10;55.00;;;;;;5018955;28;20109;-65
2024/02/07 01:25:25;;;;;;;1.05;0.85;;;19.00;55.00;;;;;;5022349;28;20034;-66
2024/02/07 01:27:50;;;;;;;1.33;1.00;;;19.00;55.00;;;;;;5023277;28;20124;-66
2024/02/07 01:30:16;;;;;;;1.65;0.95;;;19.00;55.00;;;;;;5020552;28;20188;-65
2024/02/07 01:32:42;;;;;;;0.98;0.90;;;19.00;55.10;;;;;;5023690;28;20034;-65
2024/02/07 01:35:11;;;;;;;0.80;0.77;;;18.90;55.20;;;;;;5019335;28;20022;-65
2024/02/07 01:37:38;;;;;;;1.40;0.90;;;18.90;55.20;;;;;;5021375;28;20579;-64
2024/02/07 01:40:06;;;;;;;3.17;1.20;;;18.90;55.20;;;;;;5017897;28;20125;-65
2024/02/07 01:42:32;;;;;;;1.45;0.90;;;18.90;55.30;;;;;;5015507;28;20498;-65
2024/02/07 01:45:27;;;;;;;1.30;0.98;;;18.80;55.90;;;;;;5018463;28;20094;-66
2024/02/07 01:47:53;;;;;;;2.80;1.35;;;18.80;55.30;;;;;;5017377;28;20103;-66
2024/02/07 01:50:20;;;;;;;1.75;0.98;;;18.80;55.30;;;;;;4993983;28;20038;-66
2024/02/07 01:52:46;;;;;;;1.83;1.00;;;18.80;55.30;;;;;;5015759;28;20047;-64
2024/02/07 01:55:13;;;;;;;1.45;0.90;;;18.80;55.30;;;;;;5010503;28;20133;-64
2024/02/07 01:57:41;;;;;;;1.77;1.13;;;18.80;55.20;;;;;;5001541;28;20029;-63
2024/02/07 02:00:11;;;;;;;2.65;1.20;;;18.90;55.30;;;;;;5019808;28;20510;-65
2024/02/07 02:02:37;;;;;;;0.95;0.80;;;18.80;55.10;;;;;;5015811;28;20049;-65
2024/02/07 02:05:03;;;;;;;0.88;0.70;;;18.90;55.00;;;;;;5015096;28;20641;-65
2024/02/07 02:07:28;;;;;;;2.20;0.90;;;19.00;55.00;;;;;;5015511;28;20061;-66
2024/02/07 02:09:54;;;;;;;2.78;1.10;;;19.00;54.80;;;;;;5019160;28;20048;-65
2024/02/07 02:12:20;;;;;;;2.42;1.30;;;19.00;54.80;;;;;;5022895;28;20112;-65
2024/02/07 02:14:46;;;;;;;1.48;0.90;;;19.10;54.70;;;;;;5018003;28;20672;-64
2024/02/07 02:17:13;;;;;;;3.53;1.42;;;19.10;54.60;;;;;;5023726;28;20022;-65
2024/02/07 02:19:38;;;;;;;0.80;0.80;;;19.10;54.50;;;;;;5016778;28;20034;-66
2024/02/07 02:22:47;;;;;;;2.22;1.27;;;19.20;54.50;;;;;;5023529;28;20040;-66
2024/02/07 02:25:21;;;;;;;2.35;0.98;;;19.20;54.40;;;;;;5002740;28;20045;-63
2024/02/07 02:27:54;;;;;;;2.63;1.50;;;19.20;54.30;;;;;;5024238;28;20038;-66
2024/02/07 02:30:33;;;;;;;1.48;1.10;;;19.30;54.30;;;;;;5001174;28;20408;-65
2024/02/07 02:33:03;;;;;;;2.95;1.27;;;19.30;54.40;;;;;;5003647;28;20048;-65
2024/02/07 02:35:31;;;;;;;2.17;1.20;;;19.30;54.40;;;;;;5020786;28;20041;-65
2024/02/07 02:37:56;;;;;;;2.58;1.05;;;19.30;54.30;;;;;;5017621;28;20107;-64
2024/02/07 02:40:22;;;;;;;1.65;1.00;;;19.30;54.30;;;;;;5023068;28;20064;-65
2024/02/07 02:42:47;;;;;;;2.47;1.10;;;19.30;54.20;;;;;;4999469;28;22710;-65
2024/02/07 02:45:13;;;;;;;1.92;0.88;;;19.30;54.10;;;;;;5005352;28;20029;-64
2024/02/07 02:47:38;;;;;;;1.95;1.10;;;19.30;54.20;;;;;;5015056;28;20034;-65
2024/02/07 02:50:04;;;;;;;1.88;1.15;;;19.30;54.80;;;;;;5018894;28;20253;-65
2024/02/07 02:52:31;;;;;;;3.10;0.90;;;19.30;54.10;;;;;;5016483;28;20111;-65
2024/02/07 02:54:56;;;;;;;2.50;1.40;;;19.30;54.20;;;;;;5021674;28;20112;-64
2024/02/07 02:57:23;;;;;;;1.25;1.02;;;19.30;54.20;;;;;;5017948;28;20177;-65
2024/02/07 02:59:49;;;;;;;2.70;1.17;;;19.30;54.20;;;;;;5012639;28;20045;-64
2024/02/07 03:02:19;;;;;;;2.33;1.73;;;19.30;54.30;;;;;;5000381;28;20034;-64
2024/02/07 03:04:49;;;;;;;3.03;1.08;;;19.30;54.20;;;;;;5009246;28;20033;-63
2024/02/07 03:10:00;;;;;;;1.45;1.00;;;19.30;54.20;;;;;;5001765;28;21466;-65
2024/02/07 03:12:26;;;;;;;2.45;1.00;;;19.30;54.30;;;;;;5019307;28;20496;-65
2024/02/07 03:14:51;;;;;;;1.02;0.75;;;19.20;54.30;;;;;;5013873;28;20113;-64
2024/02/07 03:17:17;;;;;;;2.50;1.45;;;19.20;54.40;;;;;;5009478;28;20032;-65
2024/02/07 03:19:42;;;;;;;1.63;0.90;;;19.20;54.40;;;;;;5017193;28;20022;-64
2024/02/07 03:22:09;;;;;;;2.35;0.90;;;19.20;54.40;;;;;;5015193;28;20037;-64
2024/02/07 03:24:35;;;;;;;1.92;1.00;;;19.20;54.50;;;;;;5010374;28;20030;-65
2024/02/07 03:27:01;;;;;;;2.85;1.27;;;19.20;54.50;;;;;;5000696;28;20033;-65
2024/02/07 03:29:27;;;;;;;1.42;0.88;;;19.20;54.40;;;;;;5018035;28;20037;-65
2024/02/07 03:31:53;;;;;;;2.72;1.33;;;19.10;54.40;;;;;;5017215;28;20038;-64
2024/02/07 03:34:20;;;;;;;3.15;1.30;;;19.20;54.60;;;;;;5022944;28;20045;-65
2024/02/07 03:36:46;;;;;;;1.42;0.90;;;19.20;54.60;;;;;;5019626;28;20026;-65
2024/02/07 03:39:13;;;;;;;1.98;1.40;;;19.10;54.40;;;;;;5020315;28;20171;-64
2024/02/07 03:41:41;;;;;;;2.15;1.00;;;19.10;54.40;;;;;;5023824;28;20025;-64
2024/02/07 03:44:12;;;;;;;3.17;1.23;;;19.10;54.60;;;;;;5023398;28;20634;-63
2024/02/07 03:46:40;;;;;;;1.35;0.82;;;19.10;54.40;;;;;;5020688;28;20030;-64
2024/02/07 03:49:09;;;;;;;2.40;1.00;;;19.10;54.50;;;;;;5019973;28;20127;-64
2024/02/07 03:51:35;;;;;;;1.58;1.10;;;19.10;54.40;;;;;;5017694;28;20113;-63
2024/02/07 03:54:04;;;;;;;2.15;1.13;;;19.10;54.40;;;;;;5023303;28;20556;-64
2024/02/07 03:56:32;;;;;;;1.55;1.00;;;19.00;54.40;;;;;;5015882;28;20125;-63
2024/02/07 03:58:58;;;;;;;1.50;1.10;;;19.00;54.50;;;;;;5022645;28;20057;-64
2024/02/07 04:01:23;;;;;;;1.38;1.05;;;19.00;54.60;;;;;;5012355;28;20120;-64
2024/02/07 04:03:49;;;;;;;3.10;1.02;;;19.00;54.50;;;;;;5016675;28;20034;-62
2024/02/07 04:06:15;;;;;;;2.08;1.05;;;19.00;54.60;;;;;;5014619;28;20025;-64
2024/02/07 04:08:41;;;;;;;1.20;1.10;;;19.00;54.60;;;;;;5013855;28;20022;-63
2024/02/07 04:11:07;;;;;;;2.97;1.05;;;19.00;54.60;;;;;;5018261;28;20033;-64
2024/02/07 05:16:11;;;;;;;1.83;1.00;;;18.90;54.70;;;;;;5015212;28;20084;-65
2024/02/07 05:18:36;;;;;;;1.55;1.27;;;18.90;54.70;;;;;;5017079;28;20037;-65
2024/02/07 05:21:03;;;;;;;2.22;1.05;;;18.80;54.70;;;;;;5017921;28;20029;-66
2024/02/07 05:23:28;;;;;;;2.17;0.90;;;18.80;54.70;;;;;;5021537;28;20030;-66
2024/02/07 05:25:57;;;;;;;2.28;1.15;;;18.80;54.70;;;;;;5022254;28;20520;-65
2024/02/07 05:28:22;;;;;;;1.52;1.10;;;18.90;54.80;;;;;;5021184;28;20120;-66
2024/02/07 05:30:48;;;;;;;1.52;1.10;;;18.80;54.90;;;;;;5005624;28;20466;-65
2024/02/07 05:33:13;;;;;;;1.73;0.82;;;18.80;54.90;;;;;;5021550;28;20025;-66
2024/02/07 05:35:38;;;;;;;1.10;0.85;;;18.90;55.00;;;;;;5019999;28;20087;-66
2024/02/07 05:38:04;;;;;;;1.92;1.30;;;18.80;55.00;;;;;;5021021;28;20017;-65
2024/02/07 05:40:30;;;;;;;1.65;0.80;;;18.80;54.90;;;;;;5025040;28;20337;-65
2024/02/07 05:42:56;;;;;;;1.13;0.93;;;18.80;55.00;;;;;;5004699;28;20038;-66
2024/02/07 05:45:21;;;;;;;1.70;1.02;;;18.80;55.00;;;;;;5026679;28;20044;-66
2024/02/07 05:47:47;;;;;;;2.08;0.90;;;18.80;55.00;;;;;;5022063;28;20060;-66
2024/02/07 05:50:15;;;;;;;2.30;0.90;;;18.80;55.00;;;;;;5019695;28;20056;-65
2024/02/07 05:52:40;;;;;;;1.30;1.10;;;18.80;54.90;;;;;;5023212;28;20033;-67
2024/02/07 05:55:07;;;;;;;1.75;0.98;;;18.80;55.00;;;;;;5028646;28;20040;-66
2024/02/07 05:57:33;;;;;;;1.75;1.10;;;18.90;55.20;;;;;;5028400;28;20095;-66
2024/02/07 05:59:59;;;;;;;2.45;1.17;;;18.90;55.30;;;;;;5028165;28;20037;-67
2024/02/07 06:02:24;;;;;;;3.40;1.50;;;18.90;55.20;;;;;;5022421;28;20037;-67
2024/02/07 06:04:52;;;;;;;2.83;1.10;;;18.90;55.30;;;;;;5007228;28;20739;-64
2024/02/07 06:07:17;;;;;;;4.07;1.15;;;18.90;55.20;;;;;;5024393;28;20056;-65
2024/02/07 06:09:45;;;;;;;1.27;0.85;;;18.90;55.10;;;;;;5021925;28;20500;-67
2024/02/07 06:12:15;;;;;;;2.30;1.30;;;18.90;55.40;;;;;;5022537;28;20523;-64
2024/02/07 06:14:41;;;;;;;1.88;1.10;;;18.90;55.60;;;;;;5018845;28;20030;-66
2024/02/07 06:17:07;;;;;;;5.40;1.13;;;19.00;56.10;;;;;;5009125;28;20667;-66
2024/02/07 06:19:32;;;;;;;2.03;1.00;;;19.00;56.20;;;;;;5022931;28;20036;-66
2024/02/07 06:21:58;;;;;;;5.07;1.25;;;19.00;56.00;;;;;;5030328;28;20116;-66
2024/02/07 06:24:24;;;;;;;1.95;1.02;;;19.00;56.00;;;;;;5007200;28;20022;-67
2024/02/07 06:26:49;;;;;;;2.88;1.20;;;19.00;55.80;;;;;;5025904;28;20061;-66
2024/02/07 06:29:15;;;;;;;4.60;2.05;;;19.00;55.80;;;;;;5002534;28;20046;-66
2024/02/07 06:31:40;;;;;;;3.45;1.50;;;19.00;55.60;;;;;;5003896;28;20029;-66
2024/02/07 06:34:06;;;;;;;2.38;1.45;;;19.00;55.60;;;;;;5027108;28;20546;-64
2024/02/07 06:36:32;;;;;;;3.95;1.70;;;19.00;55.60;;;;;;5031957;28;20025;-66
2024/02/07 06:38:58;;;;;;;5.43;1.70;;;19.00;55.60;;;;;;5021256;28;20030;-65
2024/02/07 06:41:23;;;;;;;4.03;1.40;;;19.00;55.50;;;;;;5023603;28;20459;-66
2024/02/07 06:43:49;;;;;;;5.40;1.50;;;19.00;55.50;;;;;;5021168;28;20033;-65
2024/02/07 06:46:14;;;;;;;2.85;1.40;;;19.00;55.50;;;;;;5021720;28;20053;-66
2024/02/07 06:48:40;;;;;;;3.50;2.33;;;19.00;55.50;;;;;;5019086;28;20069;-68
2024/02/07 06:51:05;;;;;;;3.40;1.60;;;19.00;55.50;;;;;;5023642;28;20088;-65
2024/02/07 06:53:31;;;;;;;4.78;1.95;;;19.00;55.50;;;;;;5019299;28;20631;-66
2024/02/07 06:55:56;;;;;;;2.88;1.77;;;19.00;55.50;;;;;;5021723;28;20080;-66
2024/02/07 06:58:22;;;;;;;4.32;1.88;;;19.00;55.50;;;;;;5020892;28;20026;-67
2024/02/07 07:00:47;;;;;;;3.67;1.30;;;19.00;55.50;;;;;;5022521;28;20037;-66
2024/02/07 07:03:13;;;;;;;3.92;1.65;;;19.00;55.50;;;;;;5024174;28;20025;-66
2024/02/07 07:05:38;;;;;;;3.70;1.40;;;19.00;55.50;;;;;;5022214;28;20033;-66
2024/02/07 07:08:04;;;;;;;3.28;1.70;;;18.90;55.60;;;;;;5023516;28;20033;-67
2024/02/07 07:10:29;;;;;;;3.13;1.73;;;18.90;55.60;;;;;;5020851;28;20045;-67
2024/02/07 07:12:55;;;;;;;3.47;1.50;;;18.90;55.60;;;;;;5004680;28;20037;-67
2024/02/07 07:15:20;;;;;;;3.13;1.63;;;18.90;55.50;;;;;;5017885;28;20068;-66
2024/02/07 07:17:46;;;;;;;3.40;1.92;;;18.90;55.60;;;;;;5018092;28;20033;-66
2024/02/07 07:20:12;;;;;;;3.70;1.58;;;18.90;55.60;;;;;;5015667;28;20333;-66
2024/02/07 07:22:37;;;;;;;3.50;1.58;;;18.90;55.60;;;;;;5014716;28;20037;-66
2024/02/07 07:25:03;;;;;;;5.05;1.80;;;18.90;55.60;;;;;;5012148;28;20045;-67
2024/02/07 07:27:30;;;;;;;3.55;2.13;;;18.80;55.60;;;;;;5015968;28;20166;-66
2024/02/07 07:29:56;;;;;;;3.97;1.38;;;18.80;55.60;;;;;;5012632;28;20038;-65
2024/02/07 07:32:21;;;;;;;2.60;1.50;;;18.80;55.70;;;;;;5012881;28;20069;-66
2024/02/07 07:34:47;;;;;;;5.60;2.03;;;18.80;55.80;;;;;;5015953;28;20382;-65
2024/02/07 07:37:12;;;;;;;3.55;1.42;;;18.80;55.80;;;;;;5012938;28;20164;-64
2024/02/07 07:39:38;;;;;;;5.43;1.65;;;18.80;55.80;;;;;;5011880;28;20034;-66
2024/02/07 07:42:04;;;;;;;3.92;1.52;;;18.70;55.90;;;;;;5013616;28;20064;-66
2024/02/07 07:44:29;;;;;;;3.10;2.10;;;18.60;55.90;;;;;;5011968;28;20117;-66
2024/02/07 07:46:54;;;;;;;1.63;1.40;;;18.60;56.10;;;;;;5017475;28;20045;-66
2024/02/07 07:49:21;;;;;;;1.90;1.55;;;18.60;56.10;;;;;;5018108;28;20037;-67
2024/02/07 07:51:46;;;;;;;2.10;1.30;;;18.60;56.10;;;;;;5018176;28;20013;-65
2024/02/07 07:54:12;;;;;;;1.83;1.30;;;18.50;56.10;;;;;;5017189;28;20404;-67
2024/02/07 07:56:37;;;;;;;3.00;1.30;;;18.50;56.10;;;;;;5017960;28;20060;-66
2024/02/07 07:59:03;;;;;;;3.72;1.50;;;18.50;56.10;;;;;;5003713;28;20060;-66
2024/02/07 08:01:28;;;;;;;2.15;1.67;;;18.50;56.00;;;;;;5017701;28;20499;-65
2024/02/07 08:03:54;;;;;;;3.60;1.48;;;18.60;56.00;;;;;;5021681;28;20044;-65
2024/02/07 08:06:23;;;;;;;2.40;1.30;;;18.60;55.80;;;;;;5020336;28;20497;-64
2024/02/07 08:08:49;;;;;;;2.75;1.42;;;18.70;55.90;;;;;;5002613;28;20032;-64
2024/02/07 08:11:14;;;;;;;2.50;1.65;;;18.80;55.80;;;;;;5002708;28;20021;-65
2024/02/07 08:13:40;;;;;;;3.42;1.88;;;18.90;55.80;;;;;;5020680;28;20116;-65
2024/02/07 08:16:06;;;;;;;4.05;1.92;;;18.90;55.60;;;;;;5018758;28;20052;-64
2024/02/07 08:18:32;;;;;;;2.85;1.02;;;19.00;55.60;;;;;;5022138;28;20103;-64
2024/02/07 08:20:58;;;;;;;1.20;1.00;;;19.10;55.50;;;;;;5017913;28;20436;-65
2024/02/07 08:23:23;;;;;;;5.68;1.08;;;19.10;55.30;;;;;;5021456;28;20026;-65
2024/02/07 08:25:49;;;;;;;1.92;1.30;;;19.20;55.30;;;;;;5017279;28;20083;-64
2024/02/07 08:28:14;;;;;;;2.85;1.50;;;19.20;55.30;;;;;;5019131;28;20029;-64
2024/02/07 08:30:40;;;;;;;2.28;1.20;;;19.30;55.80;;;;;;5018064;28;20108;-66
2024/02/07 08:33:06;;;;;;;4.35;1.45;;;19.30;55.10;;;;;;5023061;28;20033;-65
2024/02/07 08:35:31;;;;;;;4.45;1.35;;;19.30;55.10;;;;;;5018161;28;20026;-65
2024/02/07 08:37:58;;;;;;;3.70;1.50;;;19.30;55.00;;;;;;5020173;28;20038;-65
2024/02/07 08:40:28;;;;;;;2.55;1.63;;;19.30;54.90;;;;;;5022126;28;20048;-65
2024/02/07 08:42:54;;;;;;;2.20;1.20;;;19.30;54.90;;;;;;5021139;28;20037;-66
2024/02/07 08:45:20;;;;;;;2.60;1.20;;;19.30;54.80;;;;;;5017854;28;20036;-65
2024/02/07 08:47:46;;;;;;;2.72;1.10;;;19.30;54.80;;;;;;5010872;28;20121;-65
2024/02/07 08:50:12;;;;;;;2.85;1.38;;;19.30;54.70;;;;;;5010922;28;20137;-64
2024/02/07 08:52:39;;;;;;;2.00;1.27;;;19.40;54.70;;;;;;5012772;28;20045;-66
2024/02/07 08:55:07;;;;;;;3.47;1.35;;;19.40;54.70;;;;;;5017155;28;20064;-65
2024/02/07 08:57:33;;;;;;;2.70;1.33;;;19.40;54.70;;;;;;5013791;28;20041;-65
2024/02/07 08:59:58;;;;;;;2.17;0.98;;;19.40;54.80;;;;;;5013148;28;20044;-65
2024/02/07 09:02:24;;;;;;;2.85;1.20;;;19.40;54.80;;;;;;5013855;28;20038;-64
2024/02/07 09:04:49;;;;;;;3.58;1.13;;;19.40;54.80;;;;;;5015337;28;20544;-65
2024/02/07 09:07:15;;;;;;;2.67;1.02;;;19.40;54.80;;;;;;4996170;28;20125;-65
2024/02/07 09:09:40;;;;;;;2.65;1.30;;;19.40;54.80;;;;;;5020394;28;20077;-64
2024/02/07 09:12:06;;;;;;;3.15;1.20;;;19.40;54.80;;;;;;5017085;28;20530;-65
2024/02/07 09:14:31;;;;;;;2.42;1.15;;;19.40;54.90;;;;;;5016034;28;20041;-65
2024/02/07 09:16:57;;;;;;;1.80;0.90;;;19.40;54.90;;;;;;5016094;28;20476;-64
2024/02/07 09:19:22;;;;;;;6.30;1.00;;;19.30;54.90;;;;;;5016399;28;20037;-64
2024/02/07 09:21:47;;;;;;;2.80;1.48;;;19.30;54.90;;;;;;5018972;28;20021;-65
2024/02/07 09:24:13;;;;;;;6.60;1.30;;;19.30;54.90;;;;;;4999641;28;20069;-64
2024/02/07 09:26:38;;;;;;;2.17;1.13;;;19.30;54.90;;;;;;5018192;28;20114;-64
2024/02/07 09:29:04;;;;;;;2.88;0.98;;;19.30;54.90;;;;;;5018877;28;20114;-65
2024/02/07 09:31:29;;;;;;;3.08;1.10;;;19.30;54.90;;;;;;5020781;28;20029;-65
2024/02/07 09:33:55;;;;;;;4.40;1.27;;;19.30;55.00;;;;;;5023904;28;20570;-63
2024/02/07 09:36:20;;;;;;;2.00;1.20;;;19.20;54.90;;;;;;5020245;28;20053;-65
2024/02/07 09:38:46;;;;;;;1.98;1.05;;;19.20;55.00;;;;;;5018777;28;20030;-64
2024/02/07 09:41:15;;;;;;;5.50;1.52;;;19.30;55.00;;;;;;5023160;28;20512;-64
2024/02/07 09:43:41;;;;;;;4.75;1.02;;;19.20;54.90;;;;;;5023659;28;20550;-64
2024/02/07 09:46:10;;;;;;;4.50;1.08;;;19.20;54.90;;;;;;5022816;28;20037;-64
2024/02/07 09:48:37;;;;;;;1.67;1.02;;;19.20;54.80;;;;;;5018541;28;20449;-64
2024/02/07 09:51:02;;;;;;;3.33;1.10;;;19.20;54.90;;;;;;5020053;28;20401;-64
2024/02/07 09:53:30;;;;;;;2.45;0.93;;;19.20;54.90;;;;;;5019562;28;20036;-64
2024/02/07 09:55:55;;;;;;;4.03;1.00;;;19.20;54.80;;;;;;5009134;28;20037;-64
2024/02/07 09:58:22;;;;;;;4.22;1.10;;;19.20;54.80;;;;;;5019236;28;20033;-65
2024/02/07 10:00:52;;;;;;;1.88;1.20;;;19.20;54.80;;;;;;5008444;28;20056;-65
2024/02/07 10:03:25;;;;;;;4.55;1.33;;;19.20;54.90;;;;;;5001118;28;20121;-64
2024/02/07 10:05:58;;;;;;;1.60;1.10;;;19.20;54.90;;;;;;5004869;28;20578;-64
2024/02/07 10:08:26;;;;;;;3.90;1.38;;;19.20;54.90;;;;;;5021753;28;20488;-64
2024/02/07 10:10:52;;;;;;;3.40;1.15;;;19.20;54.90;;;;;;5015925;28;20067;-64
2024/02/07 10:13:17;;;;;;;3.30;1.20;;;19.10;54.80;;;;;;5011579;28;20701;-65
2024/02/07 10:15:44;;;;;;;3.10;1.27;;;19.10;54.80;;;;;;5010993;28;20044;-65
2024/02/07 10:18:13;;;;;;;2.85;1.13;;;19.10;54.90;;;;;;5009412;28;20033;-65
2024/02/07 10:20:38;;;;;;;1.17;0.95;;;19.20;55.10;;;;;;5009917;28;20038;-66
2024/02/07 10:23:08;;;;;;;3.25;1.45;;;19.20;55.10;;;;;;5001771;28;20044;-64
2024/02/07 10:25:34;;;;;;;2.25;1.00;;;19.10;55.20;;;;;;5013176;28;20683;-65
2024/02/07 10:28:04;;;;;;;1.48;0.93;;;19.10;55.30;;;;;;5011086;28;20092;-62
2024/02/07 10:30:30;;;;;;;2.95;1.00;;;19.10;55.30;;;;;;5014979;28;20037;-63
2024/02/07 10:32:56;;;;;;;3.85;0.85;;;19.10;55.40;;;;;;5014442;28;20513;-63
2024/02/07 10:35:22;;;;;;;1.73;0.88;;;19.10;55.40;;;;;;4996999;28;20037;-63
2024/02/07 10:37:52;;;;;;;1.63;0.77;;;19.00;55.40;;;;;;5017562;28;20045;-64
2024/02/07 10:40:18;;;;;;;2.20;1.40;;;19.00;55.40;;;;;;5015932;28;20037;-65
2024/02/07 10:42:52;;;;;;;1.48;1.00;;;19.00;55.50;;;;;;4986891;28;20520;-65
2024/02/07 10:45:17;;;;;;;2.25;1.00;;;19.00;55.60;;;;;;5015361;28;20032;-60
2024/02/07 10:47:43;;;;;;;2.58;0.88;;;19.00;55.60;;;;;;5009674;28;20500;-65
2024/02/07 10:50:09;;;;;;;2.08;0.90;;;18.90;55.60;;;;;;5009702;28;20042;-65
2024/02/07 10:52:37;;;;;;;1.40;0.95;;;18.90;55.60;;;;;;5015117;28;20128;-65
2024/02/07 10:55:03;;;;;;;2.95;1.00;;;18.90;55.70;;;;;;5017952;28;20164;-65
2024/02/07 10:57:37;;;;;;;1.65;1.00;;;18.90;55.80;;;;;;5018162;28;20606;-66
2024/02/07 11:00:05;;;;;;;1.50;1.02;;;18.80;55.80;;;;;;5014005;28;20037;-65
2024/02/07 11:02:31;;;;;;;2.45;0.80;;;18.90;55.80;;;;;;5015632;28;20164;-65
2024/02/07 11:04:57;;;;;;;2.45;1.40;;;18.80;55.90;;;;;;5018003;28;20034;-65
2024/02/07 11:07:24;;;;;;;0.98;0.57;;;18.80;56.00;;;;;;5022588;28;20052;-65
2024/02/07 11:09:50;;;;;;;1.17;0.93;;;18.80;55.90;;;;;;5015726;28;20065;-66
2024/02/07 11:12:15;;;;;;;1.98;1.23;;;18.80;55.90;;;;;;5024647;28;20484;-65
2024/02/07 11:14:46;;;;;;;1.63;0.63;;;18.80;55.80;;;;;;5016788;28;20029;-65
2024/02/07 11:17:14;;;;;;;1.95;0.75;;;18.80;55.90;;;;;;5023993;28;20025;-66
2024/02/07 11:19:40;;;;;;;1.27;0.70;;;18.80;55.80;;;;;;5015438;28;20096;-63
2024/02/07 11:22:13;;;;;;;1.35;0.70;;;18.80;55.80;;;;;;4989568;28;20029;-66
2024/02/07 11:24:39;;;;;;;1.67;0.70;;;18.70;55.60;;;;;;5002252;28;20030;-66
2024/02/07 11:27:07;;;;;;;1.13;0.80;;;18.70;55.60;;;;;;5007724;28;20507;-66
2024/02/07 11:29:34;;;;;;;1.35;0.80;;;18.70;55.60;;;;;;5015774;28;20050;-65
2024/02/07 11:32:01;;;;;;;1.23;0.80;;;18.70;55.60;;;;;;5021936;28;20049;-65
2024/02/07 11:34:26;;;;;;;1.38;0.50;;;18.70;55.60;;;;;;5015549;28;20045;-64
2024/02/07 11:36:53;;;;;;;2.00;1.20;;;18.70;55.50;;;;;;5017726;28;20029;-65
2024/02/07 11:39:19;;;;;;;1.13;0.80;;;18.80;55.60;;;;;;5016699;28;20026;-65
2024/02/07 11:41:48;;;;;;;2.15;0.90;;;18.80;55.60;;;;;;5009206;28;20072;-64
2024/02/07 11:44:17;;;;;;;0.77;0.70;;;18.70;55.40;;;;;;5004795;28;20030;-65
2024/02/07 11:46:55;;;;;;;0.68;0.55;;;18.80;55.40;;;;;;5016542;28;20121;-65
2024/02/07 11:49:27;;;;;;;0.75;0.63;;;18.80;55.30;;;;;;5003720;28;20037;-64
2024/02/07 11:51:59;;;;;;;2.38;0.73;;;18.80;55.20;;;;;;5010154;28;20022;-65
2024/02/07 11:54:30;;;;;;;1.30;0.60;;;18.90;55.20;;;;;;4996741;28;20079;-65
2024/02/07 11:56:58;;;;;;;1.42;0.52;;;18.90;55.00;;;;;;4998308;28;20018;-65
2024/02/07 11:59:24;;;;;;;1.38;0.68;;;19.00;54.90;;;;;;5016502;28;20075;-65
2024/02/07 12:01:50;;;;;;;1.20;0.60;;;19.00;54.90;;;;;;5017846;28;20026;-65
2024/02/07 12:04:16;;;;;;;1.17;0.45;;;19.00;54.80;;;;;;4999553;28;20067;-65
2024/02/07 12:06:43;;;;;;;0.85;0.60;;;19.00;54.70;;;;;;5015689;28;20061;-65
2024/02/07 12:09:09;;;;;;;0.82;0.63;;;19.10;54.60;;;;;;5018560;28;20031;-64
2024/02/07 12:11:35;;;;;;;1.17;0.80;;;19.10;54.60;;;;;;4998152;28;20033;-65
2024/02/07 12:14:00;;;;;;;1.02;0.50;;;19.10;54.60;;;;;;5018837;28;20033;-64
2024/02/07 12:16:26;;;;;;;1.95;0.40;;;19.20;54.50;;;;;;5002531;28;20363;-65
2024/02/07 12:18:51;;;;;;;0.65;0.50;;;19.20;54.40;;;;;;4996626;28;20037;-64
2024/02/07 12:21:17;;;;;;;1.30;0.77;;;19.20;54.40;;;;;;4999850;28;20022;-64
2024/02/07 12:23:43;;;;;;;0.80;0.70;;;19.20;54.30;;;;;;4978579;28;20037;-64
2024/02/07 12:26:09;;;;;;;1.33;0.70;;;19.20;54.20;;;;;;5003763;28;20090;-65
2024/02/07 12:28:34;;;;;;;1.35;0.85;;;19.20;54.20;;;;;;5018780;28;20029;-64
2024/02/07 12:31:00;;;;;;;1.40;0.50;;;19.30;54.10;;;;;;5013148;28;20091;-66
2024/02/07 12:33:27;;;;;;;0.60;0.45;;;19.30;54.10;;;;;;5000030;28;20033;-65
2024/02/07 12:36:02;;;;;;;0.68;0.43;;;19.20;54.00;;;;;;4973487;28;20074;-64
2024/02/07 12:38:28;;;;;;;0.60;0.40;;;19.30;54.10;;;;;;5018646;28;20040;-65
2024/02/07 12:40:54;;;;;;;3.10;0.60;;;19.30;54.00;;;;;;4996332;28;20037;-65
2024/02/07 12:43:24;;;;;;;1.05;0.40;;;19.30;54.00;;;;;;5003034;28;20044;-64
2024/02/07 12:45:54;;;;;;;0.50;0.40;;;19.30;54.10;;;;;;5017558;28;20030;-65
2024/02/07 12:48:22;;;;;;;0.68;0.52;;;19.30;54.00;;;;;;5015036;28;20026;-64
2024/02/07 12:50:47;;;;;;;0.95;0.55;;;19.20;54.00;;;;;;4994213;28;20137;-65
2024/02/07 12:53:13;;;;;;;1.73;0.77;;;19.20;54.00;;;;;;4999203;28;20121;-65
2024/02/07 12:55:39;;;;;;;0.93;0.43;;;19.20;54.10;;;;;;4994653;28;20405;-65
2024/02/07 12:58:05;;;;;;;0.57;0.43;;;19.20;54.00;;;;;;4998738;28;20042;-65
2024/02/07 13:00:31;;;;;;;1.35;0.50;;;19.20;54.00;;;;;;5010432;28;20482;-65
2024/02/07 13:02:57;;;;;;;0.55;0.38;;;19.20;54.10;;;;;;5000275;28;20037;-65
2024/02/07 13:05:22;;;;;;;1.38;0.68;;;19.20;54.10;;;;;;5010989;28;20037;-65
2024/02/07 13:07:49;;;;;;;0.52;0.50;;;19.20;54.10;;;;;;4999534;28;20018;-65
2024/02/07 13:10:14;;;;;;;0.57;0.40;;;19.20;54.10;;;;;;4995088;28;20040;-65
2024/02/07 13:12:41;;;;;;;0.93;0.50;;;19.20;54.20;;;;;;5021798;28;20030;-65
2024/02/07 13:15:06;;;;;;;0.80;0.40;;;19.20;54.10;;;;;;5017809;28;20403;-65
2024/02/07 13:17:35;;;;;;;0.40;0.40;;;19.20;54.20;;;;;;5016086;28;20025;-65
2024/02/07 13:20:04;;;;;;;1.45;0.68;;;19.10;54.10;;;;;;4995643;28;20033;-65
2024/02/07 13:22:33;;;;;;;0.85;0.50;;;19.10;54.80;;;;;;4984604;28;20049;-65
2024/02/07 13:25:08;;;;;;;0.45;0.45;;;19.10;54.20;;;;;;4996067;28;20024;-66
2024/02/07 13:27:33;;;;;;;;;;;19.10;54.20;;;;;;5010889;28;20033;-65
2024/02/07 13:29:59;;;;;;;0.30;0.30;;;19.10;54.20;;;;;;4997327;28;19913;-65
2024/02/07 13:32:24;;;;;;;0.55;0.40;;;19.10;54.20;;;;;;5001510;28;20041;-65
2024/02/07 13:34:50;;;;;;;0.52;0.50;;;19.10;54.30;;;;;;5017299;28;20097;-65
2024/02/07 13:37:16;;;;;;;1.77;0.43;;;19.10;54.30;;;;;;5016097;28;20480;-65
2024/02/07 13:39:41;;;;;;;0.40;0.30;;;19.00;54.30;;;;;;5018988;28;20496;-65
2024/02/07 13:42:07;;;;;;;0.40;0.30;;;19.00;54.20;;;;;;5019236;28;20040;-65
2024/02/07 13:44:32;;;;;;;0.30;0.30;;;19.00;54.10;;;;;;5020983;28;20033;-65
2024/02/07 13:47:01;;;;;;;0.63;0.30;;;19.00;54.10;;;;;;5016255;28;20048;-65
2024/02/07 13:49:26;;;;;;;0.32;0.20;;;19.10;54.10;;;;;;5011718;28;20403;-65